Time;durP1;ratioP1;P1;durP2;ratioP2;P2;SDS_P1;SDS_P2;PMS_P1;PMS_P2;Temp;Humidity;BMP_temperature;BMP_pressure;BME280_temperature;BME280_humidity;BME280_pressure;Samples;Min_cycle;Max_cycle;Signal;HPM_P1;HPM_P2
2022/05/12 00:01:21;;;;;;;0.65;0.63;;;17.10;17.10;;;;;;5050632;28;35646;-77
2022/05/12 00:03:47;;;;;;;0.82;0.70;;;17.20;17.20;;;;;;5066698;28;34373;-78
2022/05/12 00:06:15;;;;;;;1.00;0.90;;;17.30;17.30;;;;;;5068007;28;34194;-77
2022/05/12 00:08:41;;;;;;;0.70;0.70;;;17.30;17.30;;;;;;5067068;28;34476;-78
2022/05/12 00:11:07;;;;;;;1.05;0.80;;;17.40;17.10;;;;;;5065626;28;35185;-79
2022/05/12 00:13:34;;;;;;;1.17;0.95;;;17.40;17.20;;;;;;5082031;28;34229;-77
2022/05/12 00:15:59;;;;;;;0.98;0.90;;;17.40;17.20;;;;;;5072511;28;34211;-77
2022/05/12 00:18:26;;;;;;;2.47;0.90;;;17.40;17.20;;;;;;5065813;28;34434;-78
2022/05/12 00:20:53;;;;;;;1.05;0.77;;;17.40;17.30;;;;;;5081697;28;35939;-79
2022/05/12 00:23:22;;;;;;;0.70;0.70;;;17.40;17.50;;;;;;5049397;28;34314;-78
2022/05/12 00:25:49;;;;;;;1.38;0.60;;;17.40;18.00;;;;;;5049392;28;34079;-78
2022/05/12 00:28:19;;;;;;;0.95;0.88;;;17.40;17.50;;;;;;5083976;28;34029;-78
2022/05/12 00:30:46;;;;;;;4.72;0.80;;;17.40;17.60;;;;;;5072118;28;34864;-77
2022/05/12 00:33:14;;;;;;;1.48;0.80;;;17.40;17.60;;;;;;5087615;28;34317;-79
2022/05/12 00:35:42;;;;;;;1.55;0.70;;;17.30;17.60;;;;;;5068990;28;34250;-79
2022/05/12 00:38:08;;;;;;;1.80;0.90;;;17.30;17.80;;;;;;5057405;28;34192;-78
2022/05/12 00:40:34;;;;;;;0.70;0.70;;;17.20;17.70;;;;;;5076609;28;36291;-79
2022/05/12 00:43:03;;;;;;;0.90;0.80;;;17.10;17.90;;;;;;5065204;28;34327;-79
2022/05/12 00:45:32;;;;;;;1.70;0.90;;;17.00;18.20;;;;;;5050538;28;34159;-78
2022/05/12 00:47:58;;;;;;;2.10;0.73;;;17.00;18.30;;;;;;5051089;28;34125;-78
2022/05/12 00:50:32;;;;;;;1.95;0.90;;;16.90;18.20;;;;;;5050389;28;34451;-79
2022/05/12 00:53:01;;;;;;;1.63;1.10;;;16.90;19.40;;;;;;5066716;28;34068;-77
2022/05/12 00:55:34;;;;;;;1.88;0.80;;;16.80;19.30;;;;;;5073213;28;34183;-78
2022/05/12 00:58:04;;;;;;;1.33;1.10;;;16.80;19.50;;;;;;5070087;28;34248;-78
2022/05/12 01:00:30;;;;;;;4.13;0.93;;;16.90;18.70;;;;;;5075960;28;35944;-79
2022/05/12 01:03:01;;;;;;;3.83;1.17;;;16.90;18.50;;;;;;5069822;28;34516;-78
2022/05/12 01:05:29;;;;;;;8.13;1.17;;;16.90;18.70;;;;;;5059667;28;34123;-77
2022/05/12 01:07:56;;;;;;;1.40;1.00;;;16.80;19.50;;;;;;5073357;28;34081;-78
2022/05/12 01:10:23;;;;;;;2.45;1.10;;;16.90;18.60;;;;;;5085214;28;35504;-79
2022/05/12 01:12:51;;;;;;;2.40;1.15;;;16.90;18.60;;;;;;5080813;28;34143;-78
2022/05/12 01:15:19;;;;;;;3.30;0.90;;;16.90;18.60;;;;;;5065447;28;34454;-78
2022/05/12 01:17:46;;;;;;;3.85;1.10;;;16.80;18.50;;;;;;5050834;28;34214;-78
2022/05/12 01:20:13;;;;;;;1.58;1.00;;;16.80;18.50;;;;;;5067477;28;35502;-78
2022/05/12 01:23:00;;;;;;;3.70;0.90;;;16.80;18.60;;;;;;5067738;28;34318;-78
2022/05/12 01:25:29;;;;;;;3.00;1.10;;;16.70;20.00;;;;;;5071724;28;34229;-79
2022/05/12 01:27:55;;;;;;;1.63;0.95;;;16.70;18.80;;;;;;5064372;28;34478;-77
2022/05/12 01:30:23;;;;;;;0.80;0.80;;;16.60;18.60;;;;;;5074888;28;35801;-79
2022/05/12 01:32:50;;;;;;;5.28;1.20;;;16.50;18.90;;;;;;5070028;28;34337;-78
2022/05/12 01:35:24;;;;;;;1.70;0.98;;;16.50;18.80;;;;;;5075640;28;34158;-79
2022/05/12 01:37:50;;;;;;;1.65;0.80;;;16.40;20.00;;;;;;5075435;28;34057;-79
2022/05/12 01:40:20;;;;;;;2.20;1.02;;;16.30;18.90;;;;;;5051747;28;35529;-80
2022/05/12 01:42:46;;;;;;;1.65;0.90;;;16.20;19.20;;;;;;5049118;28;34220;-78
2022/05/12 01:45:13;;;;;;;2.10;1.08;;;16.10;19.10;;;;;;5057134;28;34233;-79
2022/05/12 01:47:40;;;;;;;1.13;0.90;;;16.10;19.40;;;;;;5050752;28;34353;-80
2022/05/12 01:50:09;;;;;;;2.58;1.00;;;15.90;19.50;;;;;;5049319;28;36636;-78
2022/05/12 01:52:36;;;;;;;2.97;0.98;;;15.80;19.70;;;;;;5052286;28;34190;-78
2022/05/12 01:55:02;;;;;;;1.13;0.98;;;15.70;19.60;;;;;;5066608;28;34114;-78
2022/05/12 01:57:29;;;;;;;2.47;1.00;;;15.60;19.80;;;;;;5064638;28;34139;-77
2022/05/12 01:59:56;;;;;;;3.83;1.00;;;15.50;19.90;;;;;;5048956;28;35661;-78
2022/05/12 02:02:23;;;;;;;1.30;1.17;;;15.40;19.90;;;;;;5065596;28;34251;-78
2022/05/12 02:04:49;;;;;;;1.70;1.20;;;15.40;20.00;;;;;;5068510;28;34445;-79
2022/05/12 02:07:16;;;;;;;1.42;0.80;;;15.30;20.10;;;;;;5065713;28;34217;-77
2022/05/12 02:09:42;;;;;;;3.15;1.00;;;15.20;20.20;;;;;;5085725;28;35526;-78
2022/05/12 02:12:08;;;;;;;1.30;1.02;;;15.00;20.20;;;;;;5047273;28;34246;-78
2022/05/12 02:14:35;;;;;;;1.45;0.90;;;15.00;20.30;;;;;;5048213;28;34161;-78
2022/05/12 02:17:01;;;;;;;1.83;0.80;;;14.90;20.50;;;;;;5049064;28;34283;-79
2022/05/12 02:19:27;;;;;;;5.00;1.17;;;14.80;20.60;;;;;;5055775;28;35015;-77
2022/05/12 02:21:54;;;;;;;4.30;1.00;;;14.70;20.70;;;;;;5068009;28;34090;-78
2022/05/12 02:24:21;;;;;;;3.30;1.00;;;14.60;20.90;;;;;;5071348;28;34439;-79
2022/05/12 02:26:47;;;;;;;3.17;1.08;;;14.60;21.10;;;;;;5078491;28;34365;-77
2022/05/12 02:29:13;;;;;;;2.35;0.98;;;14.50;21.20;;;;;;5059467;28;36347;-78
2022/05/12 02:31:38;;;;;;;1.52;1.10;;;14.40;21.30;;;;;;5032201;28;34235;-78
2022/05/12 02:34:04;;;;;;;4.13;1.40;;;14.40;21.40;;;;;;5047606;28;34171;-78
2022/05/12 02:36:30;;;;;;;2.80;1.10;;;14.30;21.60;;;;;;5075598;28;34098;-78
2022/05/12 02:38:56;;;;;;;4.43;1.10;;;14.20;21.60;;;;;;5067944;28;35006;-78
2022/05/12 02:41:22;;;;;;;2.40;0.90;;;14.20;21.70;;;;;;5067734;28;34012;-78
2022/05/12 02:43:49;;;;;;;1.58;1.10;;;14.10;21.80;;;;;;5066816;28;34053;-77
2022/05/12 02:46:16;;;;;;;1.10;1.00;;;14.00;21.80;;;;;;5050573;28;34200;-77
2022/05/12 02:48:44;;;;;;;2.58;1.30;;;13.90;22.10;;;;;;5063894;28;35868;-77
2022/05/12 02:51:11;;;;;;;4.57;1.20;;;13.90;22.30;;;;;;5047882;28;34180;-78
2022/05/12 02:53:37;;;;;;;2.58;1.00;;;13.80;22.30;;;;;;5048354;28;34026;-78
2022/05/12 02:56:04;;;;;;;1.33;0.98;;;13.70;22.70;;;;;;5047295;28;34384;-77
2022/05/12 02:58:31;;;;;;;2.97;1.13;;;13.70;22.80;;;;;;5048916;28;34343;-78
2022/05/12 03:00:57;;;;;;;1.65;1.10;;;13.60;23.00;;;;;;5062352;28;34411;-78
2022/05/12 03:03:23;;;;;;;2.58;1.30;;;13.50;23.00;;;;;;5065029;28;34271;-78
2022/05/12 03:05:51;;;;;;;1.92;1.00;;;13.40;23.10;;;;;;5055356;28;34308;-78
2022/05/12 03:08:17;;;;;;;0.90;0.90;;;13.40;23.30;;;;;;5049605;28;34253;-78
2022/05/12 03:10:43;;;;;;;2.58;0.85;;;13.30;23.20;;;;;;5031941;28;34176;-77
2022/05/12 03:13:09;;;;;;;3.78;1.17;;;13.30;23.40;;;;;;5044703;28;34203;-77
2022/05/12 03:15:35;;;;;;;5.43;1.08;;;13.20;23.30;;;;;;5047689;28;33957;-78
2022/05/12 03:18:01;;;;;;;0.80;0.80;;;13.20;23.50;;;;;;5062621;28;35674;-78
2022/05/12 03:20:32;;;;;;;0.80;0.80;;;13.10;23.60;;;;;;5046671;28;34293;-78
2022/05/12 03:22:59;;;;;;;1.42;1.00;;;13.10;24.10;;;;;;5068702;28;34067;-78
2022/05/12 03:25:25;;;;;;;0.77;0.77;;;13.00;23.90;;;;;;5077671;28;34336;-79
2022/05/12 03:27:51;;;;;;;1.23;0.85;;;13.00;23.80;;;;;;5064466;28;35668;-80
2022/05/12 03:30:22;;;;;;;1.75;1.10;;;12.90;24.00;;;;;;5046951;28;34487;-77
2022/05/12 03:32:48;;;;;;;2.05;0.80;;;12.90;24.10;;;;;;5061878;28;34116;-78
2022/05/12 03:35:15;;;;;;;0.77;0.77;;;12.90;24.00;;;;;;5068300;28;34098;-78
2022/05/12 03:37:42;;;;;;;1.27;1.02;;;12.80;24.10;;;;;;5044491;28;35617;-78
2022/05/12 03:40:11;;;;;;;1.45;0.93;;;12.80;24.20;;;;;;5061093;28;34464;-77
2022/05/12 03:42:37;;;;;;;1.73;0.88;;;12.70;24.30;;;;;;5060589;28;34074;-77
2022/05/12 03:45:03;;;;;;;2.65;1.00;;;12.70;24.20;;;;;;5060245;28;34130;-77
2022/05/12 03:47:33;;;;;;;0.82;0.80;;;12.60;24.30;;;;;;5066339;28;36078;-77
2022/05/12 03:50:03;;;;;;;1.23;0.90;;;12.60;24.60;;;;;;5059156;28;34175;-77
2022/05/12 03:52:31;;;;;;;1.30;1.20;;;12.60;24.60;;;;;;5045129;28;34108;-77
2022/05/12 03:54:57;;;;;;;1.70;1.10;;;12.50;24.70;;;;;;5043869;28;34184;-77
2022/05/12 03:57:26;;;;;;;2.45;1.10;;;12.50;24.70;;;;;;5043906;28;34338;-77
2022/05/12 03:59:52;;;;;;;0.80;0.80;;;12.40;24.90;;;;;;5049938;28;34098;-77
2022/05/12 04:02:19;;;;;;;1.25;1.15;;;12.40;25.00;;;;;;5069842;28;34298;-77
2022/05/12 04:04:47;;;;;;;4.57;1.10;;;12.30;25.10;;;;;;5070741;28;34361;-78
2022/05/12 04:07:16;;;;;;;1.00;0.90;;;12.30;25.90;;;;;;5063597;28;35989;-77
2022/05/12 04:09:42;;;;;;;2.63;1.00;;;12.20;25.50;;;;;;5057498;28;34041;-77
2022/05/12 04:12:09;;;;;;;1.80;1.00;;;12.20;25.20;;;;;;5063014;28;34293;-77
2022/05/12 04:14:37;;;;;;;2.13;1.15;;;12.20;25.40;;;;;;5063294;28;34205;-77
2022/05/12 04:17:05;;;;;;;2.88;0.90;;;12.20;25.60;;;;;;5079576;28;35842;-77
2022/05/12 04:19:31;;;;;;;5.45;1.08;;;12.10;25.50;;;;;;5057699;28;34139;-77
2022/05/12 04:21:57;;;;;;;1.15;1.00;;;12.10;25.70;;;;;;5045217;28;34145;-77
2022/05/12 04:24:23;;;;;;;1.42;0.98;;;12.10;25.70;;;;;;5051273;28;34259;-78
2022/05/12 04:26:48;;;;;;;1.85;0.90;;;12.10;25.90;;;;;;5066134;28;34429;-77
2022/05/12 04:29:15;;;;;;;2.28;0.93;;;12.10;26.10;;;;;;5057663;28;34438;-78
2022/05/12 04:31:41;;;;;;;1.60;0.90;;;12.10;26.30;;;;;;5082780;28;34400;-77
2022/05/12 04:36:49;;;;;;;7.95;1.10;;;12.00;26.10;;;;;;5053892;28;34416;-78
2022/05/12 04:39:16;;;;;;;2.30;0.73;;;12.00;26.10;;;;;;5051010;28;34605;-77
2022/05/12 04:41:42;;;;;;;0.80;0.80;;;12.00;26.20;;;;;;5066667;28;34444;-77
2022/05/12 04:44:08;;;;;;;1.10;0.93;;;12.00;26.30;;;;;;5085102;27;34570;-78
2022/05/12 04:46:35;;;;;;;1.08;0.80;;;12.00;26.30;;;;;;5084765;28;35814;-78
2022/05/12 04:49:02;;;;;;;1.10;0.90;;;12.00;26.40;;;;;;5069878;28;34207;-78
2022/05/12 04:51:29;;;;;;;4.50;1.13;;;12.00;26.50;;;;;;5067488;28;34323;-78
2022/05/12 04:53:55;;;;;;;2.42;0.85;;;12.00;26.50;;;;;;5049337;28;34064;-79
2022/05/12 04:56:21;;;;;;;2.78;1.30;;;12.00;26.70;;;;;;5063273;28;36618;-77
2022/05/12 04:58:47;;;;;;;1.45;1.10;;;12.00;26.80;;;;;;5062925;28;34288;-77
2022/05/12 05:01:13;;;;;;;1.17;1.08;;;12.10;26.70;;;;;;5063417;28;34219;-77
2022/05/12 05:03:39;;;;;;;1.60;1.05;;;12.10;26.80;;;;;;5046792;28;34104;-77
2022/05/12 05:06:05;;;;;;;2.28;1.00;;;12.20;26.70;;;;;;5067842;28;36110;-77
2022/05/12 05:08:30;;;;;;;6.18;1.20;;;12.20;26.70;;;;;;5065997;28;33666;-78
2022/05/12 05:10:56;;;;;;;1.63;1.15;;;12.40;26.80;;;;;;5041028;28;34059;-77
2022/05/12 05:13:22;;;;;;;2.95;1.10;;;12.90;26.50;;;;;;5065825;28;34072;-78
2022/05/12 05:15:50;;;;;;;1.55;1.17;;;13.60;25.30;;;;;;5083065;28;34757;-77
2022/05/12 05:18:19;;;;;;;1.95;0.98;;;14.50;23.80;;;;;;5086390;28;34301;-77
2022/05/12 05:20:46;;;;;;;1.80;1.00;;;15.40;22.30;;;;;;5066982;28;34124;-78
2022/05/12 05:23:15;;;;;;;1.52;1.20;;;16.20;20.40;;;;;;5076810;28;34083;-78
2022/05/12 05:25:43;;;;;;;1.08;0.90;;;16.90;19.40;;;;;;5086365;28;35695;-78
2022/05/12 05:28:11;;;;;;;1.88;0.88;;;17.60;19.20;;;;;;5068736;28;34326;-78
2022/05/12 05:30:37;;;;;;;4.43;1.20;;;18.20;17.90;;;;;;5070936;28;34167;-77
2022/05/12 05:33:03;;;;;;;1.20;0.82;;;18.80;17.10;;;;;;5064314;28;34567;-77
2022/05/12 05:35:29;;;;;;;0.90;0.85;;;19.40;16.30;;;;;;5066989;28;34380;-78
2022/05/12 05:37:55;;;;;;;3.00;0.77;;;20.00;15.60;;;;;;5085070;28;34296;-77
2022/05/12 05:40:26;;;;;;;3.67;0.88;;;20.50;15.20;;;;;;5059679;28;34584;-77
2022/05/12 05:42:53;;;;;;;1.30;0.80;;;21.00;14.50;;;;;;5062660;28;34264;-78
2022/05/12 05:45:19;;;;;;;4.70;1.00;;;21.50;14.00;;;;;;5081754;28;35884;-78
2022/05/12 05:47:51;;;;;;;1.13;0.80;;;22.00;13.40;;;;;;5085051;28;34138;-77
2022/05/12 05:50:21;;;;;;;2.47;0.70;;;22.60;12.50;;;;;;5074872;28;34279;-78
2022/05/12 05:55:29;;;;;;;1.55;0.80;;;23.50;11.70;;;;;;5045124;28;34366;-77
2022/05/12 05:57:59;;;;;;;3.70;0.77;;;23.90;11.20;;;;;;5047680;28;34260;-80
2022/05/12 06:00:25;;;;;;;0.80;0.80;;;24.30;10.20;;;;;;5059481;28;34229;-78
2022/05/12 06:02:51;;;;;;;1.25;0.80;;;24.50;10.30;;;;;;5082648;28;34208;-80
2022/05/12 06:05:18;;;;;;;2.03;0.70;;;24.70;9.80;;;;;;5041551;28;35987;-80
2022/05/12 06:07:45;;;;;;;2.85;0.80;;;24.70;9.60;;;;;;5047187;28;34275;-78
2022/05/12 06:10:12;;;;;;;3.90;1.00;;;24.80;9.30;;;;;;5048576;28;34091;-79
2022/05/12 06:12:38;;;;;;;2.95;0.88;;;25.10;8.80;;;;;;5064922;28;34420;-79
2022/05/12 06:15:05;;;;;;;2.40;0.93;;;25.40;8.60;;;;;;5068703;28;34507;-78
2022/05/12 06:17:31;;;;;;;4.75;0.88;;;25.60;7.80;;;;;;5066748;28;34159;-78
2022/05/12 06:19:58;;;;;;;1.38;0.80;;;25.70;7.60;;;;;;5048730;28;34081;-79
2022/05/12 06:22:24;;;;;;;1.88;0.90;;;25.80;7.10;;;;;;5046802;28;34085;-78
2022/05/12 06:24:50;;;;;;;2.42;0.77;;;25.60;7.10;;;;;;5068225;28;35838;-78
2022/05/12 06:27:19;;;;;;;1.45;0.73;;;25.70;7.00;;;;;;5048910;28;34415;-80
2022/05/12 06:29:45;;;;;;;2.25;0.75;;;26.00;6.50;;;;;;5047209;28;34453;-78
2022/05/12 06:32:12;;;;;;;2.30;0.98;;;26.10;6.60;;;;;;5070892;28;34276;-78
2022/05/12 06:34:41;;;;;;;1.85;0.63;;;26.30;6.30;;;;;;5073741;28;35541;-79
2022/05/12 06:37:08;;;;;;;1.58;0.77;;;26.30;6.30;;;;;;5064915;28;34213;-81
2022/05/12 06:39:34;;;;;;;3.42;1.10;;;26.20;6.30;;;;;;5031788;28;34206;-77
2022/05/12 06:42:01;;;;;;;1.83;0.90;;;26.00;6.30;;;;;;5047486;28;34464;-80
2022/05/12 06:44:27;;;;;;;3.65;0.90;;;25.90;6.10;;;;;;5080790;28;35635;-78
2022/05/12 06:46:53;;;;;;;2.17;0.82;;;25.80;6.10;;;;;;5063342;28;34066;-79
2022/05/12 06:49:20;;;;;;;5.05;0.88;;;25.60;6.20;;;;;;5048779;28;34424;-79
2022/05/12 06:51:46;;;;;;;3.35;1.00;;;25.60;6.00;;;;;;5072867;28;34707;-78
2022/05/12 06:54:13;;;;;;;2.22;0.82;;;25.50;6.00;;;;;;5065168;28;35738;-78
2022/05/12 06:56:41;;;;;;;2.15;0.70;;;25.60;5.80;;;;;;5057851;28;34197;-77
2022/05/12 06:59:08;;;;;;;3.05;1.08;;;25.90;5.60;;;;;;5046237;28;34277;-79
2022/05/12 07:01:34;;;;;;;1.45;0.70;;;26.00;5.80;;;;;;5082193;28;34128;-79
2022/05/12 07:04:00;;;;;;;2.20;0.70;;;26.10;5.70;;;;;;5061191;28;36037;-79
2022/05/12 07:06:27;;;;;;;3.78;0.85;;;26.00;5.50;;;;;;5081577;28;34147;-77
2022/05/12 07:08:54;;;;;;;2.10;0.88;;;25.40;5.60;;;;;;5075931;28;34299;-79
2022/05/12 07:11:20;;;;;;;1.83;0.82;;;25.00;6.20;;;;;;5043414;28;34315;-79
2022/05/12 07:13:46;;;;;;;1.38;0.80;;;24.80;6.60;;;;;;5048731;28;35822;-80
2022/05/12 07:16:12;;;;;;;4.35;1.00;;;24.80;6.80;;;;;;5046877;28;34267;-80
2022/05/12 07:18:38;;;;;;;4.07;0.90;;;24.50;7.10;;;;;;5065170;28;34162;-79
2022/05/12 07:26:36;;;;;;;1.60;0.85;;;24.00;7.20;;;;;;5047100;28;34210;-78
2022/05/12 07:29:04;;;;;;;4.45;1.13;;;23.50;7.60;;;;;;5030308;28;34464;-79
2022/05/12 07:31:30;;;;;;;1.00;0.70;;;22.90;7.70;;;;;;5031185;28;34128;-78
2022/05/12 07:33:57;;;;;;;3.03;1.17;;;22.60;8.00;;;;;;5054097;28;34385;-77
2022/05/12 07:36:27;;;;;;;2.47;1.00;;;22.40;8.00;;;;;;5056913;28;34621;-80
2022/05/12 07:38:55;;;;;;;0.93;0.73;;;22.20;7.80;;;;;;5047947;28;34152;-81
2022/05/12 07:41:21;;;;;;;1.70;0.90;;;21.80;8.60;;;;;;5075587;28;34432;-79
2022/05/12 07:43:48;;;;;;;2.25;0.88;;;21.60;8.80;;;;;;5048927;28;34477;-78
2022/05/12 07:46:17;;;;;;;1.58;1.00;;;21.50;8.80;;;;;;5060381;28;34451;-77
2022/05/12 07:48:44;;;;;;;2.50;0.70;;;21.80;8.70;;;;;;5043511;28;34151;-79
2022/05/12 07:51:10;;;;;;;1.70;0.77;;;22.00;8.50;;;;;;5078028;28;34253;-78
2022/05/12 07:53:37;;;;;;;2.22;0.90;;;22.40;8.10;;;;;;5077344;28;36849;-78
2022/05/12 07:56:03;;;;;;;3.17;0.95;;;22.60;7.80;;;;;;5061622;28;34499;-80
2022/05/12 07:58:30;;;;;;;0.68;0.60;;;23.00;7.30;;;;;;5064307;28;34245;-78
2022/05/12 08:00:57;;;;;;;1.50;0.75;;;23.10;7.20;;;;;;5064978;28;35851;-79
2022/05/12 08:03:25;;;;;;;4.65;0.93;;;23.20;7.00;;;;;;5049162;28;35261;-77
2022/05/12 08:05:51;;;;;;;1.52;0.80;;;23.30;7.00;;;;;;5081398;28;34511;-77
2022/05/12 08:08:17;;;;;;;2.17;1.00;;;23.30;7.00;;;;;;5087348;28;34353;-78
2022/05/12 08:10:43;;;;;;;1.77;0.82;;;23.30;6.90;;;;;;5075337;28;34399;-78
2022/05/12 08:13:15;;;;;;;3.45;0.88;;;23.50;6.70;;;;;;5084123;28;35703;-78
2022/05/12 08:15:42;;;;;;;2.38;0.85;;;23.50;6.60;;;;;;5077028;28;34092;-78
2022/05/12 08:18:08;;;;;;;1.55;0.70;;;23.40;6.30;;;;;;5065516;28;34230;-78
2022/05/12 08:20:35;;;;;;;2.92;0.98;;;23.40;6.60;;;;;;5060302;28;34240;-77
2022/05/12 08:23:01;;;;;;;1.42;0.82;;;23.50;6.60;;;;;;5069913;28;34453;-79
2022/05/12 08:25:27;;;;;;;3.75;0.70;;;23.20;6.80;;;;;;5057345;28;34233;-79
2022/05/12 08:27:53;;;;;;;2.35;0.70;;;23.00;6.70;;;;;;5058063;28;34217;-79
2022/05/12 08:30:19;;;;;;;2.25;0.80;;;22.70;6.90;;;;;;5077571;28;34135;-76
2022/05/12 08:32:45;;;;;;;2.53;0.82;;;22.70;7.00;;;;;;5088167;28;34411;-78
2022/05/12 08:35:11;;;;;;;1.20;0.75;;;22.80;6.80;;;;;;5063043;28;34221;-79
2022/05/12 08:37:38;;;;;;;1.10;0.70;;;22.90;6.70;;;;;;5067892;28;34099;-77
2022/05/12 08:40:06;;;;;;;1.23;0.55;;;23.00;6.50;;;;;;5060982;28;34606;-78
2022/05/12 08:42:41;;;;;;;2.90;1.00;;;23.20;6.10;;;;;;5030064;28;36612;-78
2022/05/12 08:45:09;;;;;;;2.35;0.60;;;23.30;5.00;;;;;;5054926;28;34191;-77
2022/05/12 08:47:42;;;;;;;1.42;0.95;;;23.20;5.10;;;;;;5081349;28;34124;-77
2022/05/12 08:50:15;;;;;;;2.13;0.82;;;23.10;5.60;;;;;;5069996;28;34044;-79
2022/05/12 08:52:47;;;;;;;0.68;0.68;;;23.20;5.70;;;;;;5068522;28;35288;-78
2022/05/12 08:55:21;;;;;;;2.33;0.88;;;23.30;5.30;;;;;;5085009;28;34629;-77
2022/05/12 08:58:04;;;;;;;3.95;0.93;;;23.50;4.60;;;;;;5047316;28;34343;-77
2022/05/12 09:00:52;;;;;;;1.67;0.70;;;23.60;3.40;;;;;;5049409;28;34140;-78
2022/05/12 09:03:36;;;;;;;2.63;0.75;;;23.80;3.60;;;;;;5046988;28;35665;-80
2022/05/12 09:06:09;;;;;;;2.20;0.90;;;23.60;3.30;;;;;;5084590;28;34121;-77
2022/05/12 09:08:57;;;;;;;2.25;0.70;;;23.50;4.30;;;;;;5052489;28;34086;-79
2022/05/12 09:11:38;;;;;;;2.20;0.75;;;23.50;4.30;;;;;;5057591;28;34211;-78
2022/05/12 09:14:11;;;;;;;1.67;0.65;;;23.60;3.90;;;;;;5076279;28;35600;-78
2022/05/12 09:16:37;;;;;;;1.75;0.73;;;23.50;3.60;;;;;;5052167;28;34314;-78
2022/05/12 09:19:03;;;;;;;2.90;0.98;;;23.50;5.10;;;;;;5067251;28;34178;-79
2022/05/12 09:21:35;;;;;;;1.77;0.80;;;23.70;4.80;;;;;;5065280;28;34416;-77
2022/05/12 09:24:03;;;;;;;1.45;0.70;;;23.80;3.60;;;;;;5066441;28;35898;-77
2022/05/12 09:26:36;;;;;;;1.42;0.77;;;23.80;4.60;;;;;;5052499;28;34226;-77
2022/05/12 09:29:14;;;;;;;1.20;0.75;;;23.80;3.60;;;;;;5067042;28;34453;-78
2022/05/12 09:31:43;;;;;;;2.25;0.90;;;23.90;4.30;;;;;;5065152;28;34364;-77
2022/05/12 09:34:24;;;;;;;2.08;0.95;;;24.00;3.90;;;;;;5050876;28;36732;-79
2022/05/12 09:36:51;;;;;;;1.27;0.70;;;24.00;1.40;;;;;;5082072;28;34431;-77
2022/05/12 09:39:34;;;;;;;2.70;0.80;;;24.00;4.20;;;;;;5064970;28;34285;-77
2022/05/12 09:42:01;;;;;;;2.88;0.85;;;24.00;1.00;;;;;;5048135;28;34333;-76
2022/05/12 09:44:30;;;;;;;2.13;0.93;;;23.70;3.90;;;;;;5065235;28;36524;-76
2022/05/12 09:47:12;;;;;;;13.60;1.13;;;23.70;3.90;;;;;;5080131;28;33846;-76
2022/05/12 09:49:42;;;;;;;0.90;0.80;;;23.90;4.00;;;;;;5059210;28;34235;-79
2022/05/12 09:52:28;;;;;;;3.30;1.02;;;23.90;3.40;;;;;;5029769;28;34084;-77
2022/05/12 09:55:15;;;;;;;2.25;0.60;;;23.90;1.60;;;;;;5054901;28;35613;-75
2022/05/12 09:58:03;;;;;;;3.88;0.77;;;24.10;1.20;;;;;;5061357;28;34243;-76
2022/05/12 10:00:48;;;;;;;0.93;0.80;;;24.30;2.40;;;;;;5059671;28;34175;-77
2022/05/12 10:09:23;;;;;;;1.33;0.95;;;24.50;1.70;;;;;;5047675;28;34154;-77
2022/05/12 10:12:15;;;;;;;1.63;0.77;;;24.70;1.60;;;;;;5047041;28;34402;-79
2022/05/12 10:14:57;;;;;;;4.03;0.80;;;24.80;1.00;;;;;;5056253;28;34493;-77
2022/05/12 10:17:41;;;;;;;1.67;0.60;;;25.00;1.00;;;;;;5086216;28;36370;-76
2022/05/12 10:20:18;;;;;;;2.28;0.80;;;25.00;1.00;;;;;;5045534;28;34104;-76
2022/05/12 10:23:04;;;;;;;1.77;0.75;;;25.00;1.00;;;;;;5048452;28;34140;-76
2022/05/12 10:25:47;;;;;;;1.63;0.80;;;25.10;1.10;;;;;;5076371;28;34567;-79
2022/05/12 10:28:32;;;;;;;2.78;0.70;;;25.30;1.60;;;;;;5060660;28;35965;-77
2022/05/12 10:31:14;;;;;;;1.42;0.80;;;25.50;1.00;;;;;;5043748;28;34134;-79
2022/05/12 10:34:05;;;;;;;1.50;0.60;;;25.60;1.00;;;;;;5059509;28;34452;-78
2022/05/12 10:36:49;;;;;;;3.70;1.00;;;25.60;1.00;;;;;;5059709;28;34303;-78
2022/05/12 10:39:36;;;;;;;4.30;1.00;;;25.70;1.00;;;;;;5059689;28;36195;-74
2022/05/12 10:42:28;;;;;;;1.70;0.70;;;25.40;1.00;;;;;;5060461;28;34292;-76
2022/05/12 10:45:20;;;;;;;1.35;0.65;;;25.50;1.00;;;;;;5064448;28;34218;-77
2022/05/12 10:48:02;;;;;;;2.00;0.60;;;25.50;1.00;;;;;;5082063;28;34376;-76
2022/05/12 10:50:46;;;;;;;1.55;0.70;;;25.60;1.00;;;;;;5050084;28;35496;-78
2022/05/12 10:53:26;;;;;;;2.95;0.68;;;25.80;1.00;;;;;;5061620;28;34233;-76
2022/05/12 10:56:23;;;;;;;2.83;0.82;;;25.90;1.00;;;;;;5046550;28;34142;-78
2022/05/12 10:59:13;;;;;;;5.47;0.90;;;25.90;1.00;;;;;;5062805;28;34443;-77
2022/05/12 11:01:46;;;;;;;0.98;0.60;;;26.10;1.00;;;;;;5044677;28;35927;-74
2022/05/12 11:04:19;;;;;;;1.48;0.63;;;26.10;1.00;;;;;;5045213;28;34162;-77
2022/05/12 11:06:57;;;;;;;0.90;0.47;;;25.90;1.00;;;;;;5048050;28;34422;-79
2022/05/12 11:09:36;;;;;;;0.73;0.50;;;26.00;1.00;;;;;;5066428;28;34747;-78
2022/05/12 11:12:17;;;;;;;1.20;0.70;;;26.00;1.00;;;;;;5049127;28;35580;-77
2022/05/12 11:14:55;;;;;;;1.65;0.55;;;26.10;1.00;;;;;;5066412;28;34209;-79
2022/05/12 11:17:34;;;;;;;1.42;0.73;;;26.20;1.00;;;;;;5072511;28;34387;-79
2022/05/12 11:20:36;;;;;;;0.70;0.70;;;26.30;1.00;;;;;;5071988;28;34155;-76
2022/05/12 11:23:18;;;;;;;1.00;0.60;;;26.40;1.00;;;;;;5058902;28;35762;-77
2022/05/12 11:26:13;;;;;;;1.77;0.60;;;26.40;1.00;;;;;;5061029;28;34161;-79
2022/05/12 11:31:44;;;;;;;1.13;0.60;;;26.50;1.00;;;;;;5053691;28;34227;-76
2022/05/12 11:34:15;;;;;;;3.38;0.60;;;26.40;1.00;;;;;;5068102;28;36661;-78
2022/05/12 11:36:45;;;;;;;1.50;0.70;;;26.20;1.00;;;;;;5067907;28;33894;-79
2022/05/12 11:39:29;;;;;;;1.60;0.60;;;26.30;1.00;;;;;;5055553;28;34337;-77
2022/05/12 11:42:13;;;;;;;1.08;0.60;;;26.30;1.00;;;;;;5069805;28;34050;-79
2022/05/12 11:44:58;;;;;;;1.77;0.70;;;26.10;1.00;;;;;;5047883;28;35717;-78
2022/05/12 11:47:52;;;;;;;0.95;0.60;;;26.00;1.00;;;;;;5058787;28;34049;-78
2022/05/12 11:50:41;;;;;;;0.70;0.50;;;26.10;1.00;;;;;;5073689;28;34208;-77
2022/05/12 11:53:24;;;;;;;1.17;0.60;;;26.10;1.00;;;;;;5064887;28;34578;-78
2022/05/12 11:56:04;;;;;;;1.10;0.65;;;25.90;1.00;;;;;;5065808;28;34388;-79
2022/05/12 11:58:40;;;;;;;2.38;0.70;;;26.00;1.00;;;;;;5069238;28;34352;-77
2022/05/12 12:01:24;;;;;;;2.58;0.70;;;26.20;1.00;;;;;;5068472;28;34234;-77
2022/05/12 12:04:00;;;;;;;0.60;0.60;;;26.40;1.00;;;;;;5058078;28;34088;-80
2022/05/12 12:06:43;;;;;;;1.33;0.60;;;26.70;1.00;;;;;;5048304;28;35659;-80
2022/05/12 12:09:44;;;;;;;3.40;0.80;;;26.80;1.00;;;;;;5065025;28;34292;-78
2022/05/12 12:12:31;;;;;;;0.85;0.55;;;26.80;1.00;;;;;;5050906;28;34421;-77
2022/05/12 12:15:00;;;;;;;1.15;0.68;;;26.80;1.00;;;;;;5060878;28;34313;-77
2022/05/12 12:17:37;;;;;;;4.20;0.90;;;26.90;1.00;;;;;;5067766;28;34994;-77
2022/05/12 12:20:12;;;;;;;1.55;0.68;;;27.00;1.00;;;;;;5066531;28;34184;-76
2022/05/12 12:22:46;;;;;;;2.78;0.63;;;27.00;1.00;;;;;;5061680;28;34428;-77
2022/05/12 12:25:22;;;;;;;1.15;0.77;;;26.90;1.00;;;;;;5067165;28;34183;-77
2022/05/12 12:28:19;;;;;;;1.42;0.60;;;26.50;1.00;;;;;;5069573;28;34929;-79
2022/05/12 12:31:07;;;;;;;1.60;0.50;;;26.40;1.00;;;;;;5064790;28;34476;-78
2022/05/12 12:33:39;;;;;;;1.55;0.57;;;26.30;1.00;;;;;;5044107;28;34228;-76
2022/05/12 12:36:45;;;;;;;1.35;0.43;;;26.30;1.00;;;;;;5072471;28;34379;-75
2022/05/12 12:39:28;;;;;;;1.90;0.60;;;26.50;1.00;;;;;;5063198;28;35982;-78
2022/05/12 12:42:20;;;;;;;2.72;0.70;;;26.50;1.00;;;;;;5057561;28;34114;-75
2022/05/12 12:44:51;;;;;;;1.65;0.70;;;26.50;1.00;;;;;;5089972;28;34222;-81
2022/05/12 12:47:33;;;;;;;1.42;0.70;;;26.50;1.00;;;;;;5068075;28;34123;-77
2022/05/12 12:50:18;;;;;;;2.50;0.60;;;26.40;1.00;;;;;;5065528;28;35791;-79
2022/05/12 12:52:47;;;;;;;0.98;0.70;;;26.10;1.00;;;;;;5039106;28;33648;-78
2022/05/12 12:58:02;;;;;;;1.58;0.68;;;26.00;1.00;;;;;;5055185;28;34264;-78
2022/05/12 13:00:33;;;;;;;4.72;0.93;;;26.00;1.00;;;;;;5055388;28;36750;-77
2022/05/12 13:03:06;;;;;;;0.85;0.50;;;26.00;1.00;;;;;;5047630;28;34209;-77
2022/05/12 13:05:34;;;;;;;0.60;0.60;;;25.90;1.00;;;;;;5061370;28;34308;-77
2022/05/12 13:08:19;;;;;;;1.75;0.63;;;25.70;1.00;;;;;;5051866;28;34323;-78
2022/05/12 13:10:49;;;;;;;2.25;0.80;;;25.80;1.00;;;;;;5064425;28;35872;-76
2022/05/12 13:13:15;;;;;;;1.20;0.60;;;25.60;1.00;;;;;;5050703;28;34400;-77
2022/05/12 13:15:45;;;;;;;0.82;0.52;;;25.60;1.00;;;;;;5046302;28;34643;-77
2022/05/12 13:18:22;;;;;;;0.95;0.60;;;25.70;1.00;;;;;;5066116;28;34521;-77
2022/05/12 13:20:50;;;;;;;1.30;0.50;;;25.80;1.00;;;;;;5049320;28;35767;-79
2022/05/12 13:23:24;;;;;;;1.20;0.80;;;25.80;1.00;;;;;;5064583;28;34329;-78
2022/05/12 13:25:52;;;;;;;2.13;0.63;;;26.00;1.00;;;;;;5069788;28;34416;-78
2022/05/12 13:28:22;;;;;;;1.33;0.50;;;26.10;1.00;;;;;;5067731;28;34159;-75
2022/05/12 13:31:09;;;;;;;1.88;0.63;;;26.00;1.00;;;;;;5068365;28;36393;-77
2022/05/12 13:33:35;;;;;;;3.30;0.70;;;26.10;1.00;;;;;;5046844;28;34193;-75
2022/05/12 13:36:04;;;;;;;1.50;0.47;;;26.30;1.00;;;;;;5059700;28;34359;-78